sensor_id;sensor_type;location;lat;lon;timestamp;temperature;humidity
58517;DHT22;44308;50.810;0.284;2023-05-08T00:01:35;12.50;99.90
58517;DHT22;44308;50.810;0.284;2023-05-08T00:04:03;12.40;99.90
58517;DHT22;44308;50.810;0.284;2023-05-08T00:06:29;12.40;99.90
58517;DHT22;44308;50.810;0.284;2023-05-08T00:08:55;12.50;99.90
58517;DHT22;44308;50.810;0.284;2023-05-08T00:11:21;12.50;99.90
58517;DHT22;44308;50.810;0.284;2023-05-08T00:13:47;12.50;99.90
58517;DHT22;44308;50.810;0.284;2023-05-08T00:16:13;12.60;99.90
58517;DHT22;44308;50.810;0.284;2023-05-08T00:18:39;12.70;99.90
58517;DHT22;44308;50.810;0.284;2023-05-08T00:21:05;12.70;99.90
58517;DHT22;44308;50.810;0.284;2023-05-08T00:23:32;12.60;99.90
58517;DHT22;44308;50.810;0.284;2023-05-08T00:25:58;12.60;99.90
58517;DHT22;44308;50.810;0.284;2023-05-08T00:28:24;12.60;99.90
58517;DHT22;44308;50.810;0.284;2023-05-08T00:30:50;12.50;99.90
58517;DHT22;44308;50.810;0.284;2023-05-08T00:33:17;12.50;99.90
58517;DHT22;44308;50.810;0.284;2023-05-08T00:35:42;12.40;99.90
58517;DHT22;44308;50.810;0.284;2023-05-08T00:38:11;12.40;99.90
58517;DHT22;44308;50.810;0.284;2023-05-08T00:40:37;12.40;99.90
58517;DHT22;44308;50.810;0.284;2023-05-08T00:43:03;12.40;99.90
58517;DHT22;44308;50.810;0.284;2023-05-08T00:45:35;12.30;99.90
58517;DHT22;44308;50.810;0.284;2023-05-08T00:48:01;12.40;99.90
58517;DHT22;44308;50.810;0.284;2023-05-08T00:50:28;12.40;99.90
58517;DHT22;44308;50.810;0.284;2023-05-08T00:52:55;12.30;99.90
58517;DHT22;44308;50.810;0.284;2023-05-08T00:55:21;12.30;99.90
58517;DHT22;44308;50.810;0.284;2023-05-08T00:57:47;12.30;99.90
58517;DHT22;44308;50.810;0.284;2023-05-08T01:00:15;12.20;99.90
58517;DHT22;44308;50.810;0.284;2023-05-08T01:02:44;12.10;99.90
58517;DHT22;44308;50.810;0.284;2023-05-08T01:05:10;12.10;99.90
58517;DHT22;44308;50.810;0.284;2023-05-08T01:07:37;12.00;99.90
58517;DHT22;44308;50.810;0.284;2023-05-08T01:10:04;12.00;99.90
58517;DHT22;44308;50.810;0.284;2023-05-08T01:15:23;11.90;99.90
58517;DHT22;44308;50.810;0.284;2023-05-08T01:20:44;11.90;99.90
58517;DHT22;44308;50.810;0.284;2023-05-08T01:34:22;11.50;99.90
58517;DHT22;44308;50.810;0.284;2023-05-08T01:37:03;11.40;99.90
58517;DHT22;44308;50.810;0.284;2023-05-08T01:39:54;11.40;99.90
58517;DHT22;44308;50.810;0.284;2023-05-08T01:42:44;11.30;99.90
58517;DHT22;44308;50.810;0.284;2023-05-08T01:45:25;11.20;99.90
58517;DHT22;44308;50.810;0.284;2023-05-08T01:48:03;11.10;99.90
58517;DHT22;44308;50.810;0.284;2023-05-08T01:50:34;11.10;99.90
58517;DHT22;44308;50.810;0.284;2023-05-08T01:53:18;11.10;99.90
58517;DHT22;44308;50.810;0.284;2023-05-08T01:55:46;11.00;99.90
58517;DHT22;44308;50.810;0.284;2023-05-08T01:58:13;11.00;99.90
58517;DHT22;44308;50.810;0.284;2023-05-08T02:00:40;11.00;99.90
58517;DHT22;44308;50.810;0.284;2023-05-08T02:03:08;11.00;99.90
58517;DHT22;44308;50.810;0.284;2023-05-08T02:05:39;11.00;99.90
58517;DHT22;44308;50.810;0.284;2023-05-08T02:08:08;10.90;99.90
58517;DHT22;44308;50.810;0.284;2023-05-08T02:10:37;10.90;99.90
58517;DHT22;44308;50.810;0.284;2023-05-08T02:13:06;10.80;99.90
58517;DHT22;44308;50.810;0.284;2023-05-08T02:15:34;10.80;99.90
58517;DHT22;44308;50.810;0.284;2023-05-08T02:18:04;10.80;99.90
58517;DHT22;44308;50.810;0.284;2023-05-08T02:20:31;10.70;99.90
58517;DHT22;44308;50.810;0.284;2023-05-08T02:22:58;10.70;99.90
58517;DHT22;44308;50.810;0.284;2023-05-08T02:25:24;10.70;99.90
58517;DHT22;44308;50.810;0.284;2023-05-08T02:27:52;10.70;99.90
58517;DHT22;44308;50.810;0.284;2023-05-08T02:30:20;10.70;99.90
58517;DHT22;44308;50.810;0.284;2023-05-08T02:32:49;10.60;99.90
58517;DHT22;44308;50.810;0.284;2023-05-08T02:35:17;10.60;99.90
58517;DHT22;44308;50.810;0.284;2023-05-08T02:37:45;10.50;99.90
58517;DHT22;44308;50.810;0.284;2023-05-08T02:40:13;10.50;99.90
58517;DHT22;44308;50.810;0.284;2023-05-08T02:42:39;10.50;99.90
58517;DHT22;44308;50.810;0.284;2023-05-08T02:45:06;10.50;99.90
58517;DHT22;44308;50.810;0.284;2023-05-08T02:47:52;10.50;99.90
58517;DHT22;44308;50.810;0.284;2023-05-08T02:50:25;10.40;99.90
58517;DHT22;44308;50.810;0.284;2023-05-08T02:53:15;10.50;99.90
58517;DHT22;44308;50.810;0.284;2023-05-08T02:55:47;10.50;99.90
58517;DHT22;44308;50.810;0.284;2023-05-08T02:58:21;10.50;99.90
58517;DHT22;44308;50.810;0.284;2023-05-08T03:00:55;10.50;99.90
58517;DHT22;44308;50.810;0.284;2023-05-08T03:03:26;10.60;99.90
58517;DHT22;44308;50.810;0.284;2023-05-08T03:05:55;10.90;99.90
58517;DHT22;44308;50.810;0.284;2023-05-08T03:08:31;11.00;99.90
58517;DHT22;44308;50.810;0.284;2023-05-08T03:11:01;11.00;99.90
58517;DHT22;44308;50.810;0.284;2023-05-08T03:13:31;11.00;99.90
58517;DHT22;44308;50.810;0.284;2023-05-08T03:16:00;11.00;99.90
58517;DHT22;44308;50.810;0.284;2023-05-08T03:18:40;11.10;99.90
58517;DHT22;44308;50.810;0.284;2023-05-08T03:21:08;11.30;99.90
58517;DHT22;44308;50.810;0.284;2023-05-08T03:23:38;11.20;99.90
58517;DHT22;44308;50.810;0.284;2023-05-08T03:26:06;11.30;99.90
58517;DHT22;44308;50.810;0.284;2023-05-08T03:28:34;11.20;99.90
58517;DHT22;44308;50.810;0.284;2023-05-08T03:31:01;11.30;99.90
58517;DHT22;44308;50.810;0.284;2023-05-08T03:33:28;11.30;99.90
58517;DHT22;44308;50.810;0.284;2023-05-08T03:35:55;11.40;99.90
58517;DHT22;44308;50.810;0.284;2023-05-08T03:38:22;11.50;99.90
58517;DHT22;44308;50.810;0.284;2023-05-08T03:40:48;11.60;99.90
58517;DHT22;44308;50.810;0.284;2023-05-08T03:43:15;11.60;99.90
58517;DHT22;44308;50.810;0.284;2023-05-08T03:45:43;11.70;99.90
58517;DHT22;44308;50.810;0.284;2023-05-08T03:48:10;11.90;99.90
58517;DHT22;44308;50.810;0.284;2023-05-08T03:50:36;12.00;99.90
58517;DHT22;44308;50.810;0.284;2023-05-08T03:53:21;12.10;99.90
58517;DHT22;44308;50.810;0.284;2023-05-08T03:55:46;12.10;99.90
58517;DHT22;44308;50.810;0.284;2023-05-08T03:58:37;12.10;99.90
58517;DHT22;44308;50.810;0.284;2023-05-08T04:01:12;12.20;99.90
58517;DHT22;44308;50.810;0.284;2023-05-08T04:09:38;12.20;99.90
58517;DHT22;44308;50.810;0.284;2023-05-08T04:12:20;12.30;99.90
58517;DHT22;44308;50.810;0.284;2023-05-08T04:14:54;12.30;99.90
58517;DHT22;44308;50.810;0.284;2023-05-08T04:20:30;12.20;99.90
58517;DHT22;44308;50.810;0.284;2023-05-08T04:22:59;12.30;99.90
58517;DHT22;44308;50.810;0.284;2023-05-08T04:25:27;12.30;99.90
58517;DHT22;44308;50.810;0.284;2023-05-08T04:27:54;12.40;99.90
58517;DHT22;44308;50.810;0.284;2023-05-08T04:30:22;12.40;99.90
58517;DHT22;44308;50.810;0.284;2023-05-08T04:32:48;12.40;99.90
58517;DHT22;44308;50.810;0.284;2023-05-08T04:35:15;12.50;99.90
58517;DHT22;44308;50.810;0.284;2023-05-08T04:37:41;12.60;99.90
58517;DHT22;44308;50.810;0.284;2023-05-08T04:40:09;12.70;99.90
58517;DHT22;44308;50.810;0.284;2023-05-08T04:42:37;12.70;99.90
58517;DHT22;44308;50.810;0.284;2023-05-08T04:45:07;12.80;99.90
58517;DHT22;44308;50.810;0.284;2023-05-08T04:47:33;12.80;99.90
58517;DHT22;44308;50.810;0.284;2023-05-08T04:49:59;12.80;99.90
58517;DHT22;44308;50.810;0.284;2023-05-08T04:52:45;12.80;99.90
58517;DHT22;44308;50.810;0.284;2023-05-08T04:55:10;12.80;99.90
58517;DHT22;44308;50.810;0.284;2023-05-08T04:57:36;12.80;99.90
58517;DHT22;44308;50.810;0.284;2023-05-08T05:00:02;12.70;99.90
58517;DHT22;44308;50.810;0.284;2023-05-08T05:02:28;12.80;99.90
58517;DHT22;44308;50.810;0.284;2023-05-08T05:04:53;12.80;99.90
58517;DHT22;44308;50.810;0.284;2023-05-08T05:07:23;12.90;99.90
58517;DHT22;44308;50.810;0.284;2023-05-08T05:09:48;12.80;99.90
58517;DHT22;44308;50.810;0.284;2023-05-08T05:12:14;12.90;99.90
58517;DHT22;44308;50.810;0.284;2023-05-08T05:14:40;12.90;99.90
58517;DHT22;44308;50.810;0.284;2023-05-08T05:17:05;12.80;99.90
58517;DHT22;44308;50.810;0.284;2023-05-08T05:19:31;12.90;99.90
58517;DHT22;44308;50.810;0.284;2023-05-08T05:21:57;12.90;99.90
58517;DHT22;44308;50.810;0.284;2023-05-08T05:24:24;12.90;99.90
58517;DHT22;44308;50.810;0.284;2023-05-08T05:26:49;12.90;99.90
58517;DHT22;44308;50.810;0.284;2023-05-08T05:29:15;12.90;99.90
58517;DHT22;44308;50.810;0.284;2023-05-08T05:31:41;12.90;99.90
58517;DHT22;44308;50.810;0.284;2023-05-08T05:34:07;13.00;99.90
58517;DHT22;44308;50.810;0.284;2023-05-08T05:36:32;13.00;99.90
58517;DHT22;44308;50.810;0.284;2023-05-08T05:38:58;13.10;99.90
58517;DHT22;44308;50.810;0.284;2023-05-08T05:41:24;13.10;99.90
58517;DHT22;44308;50.810;0.284;2023-05-08T05:43:50;13.30;99.90
58517;DHT22;44308;50.810;0.284;2023-05-08T05:46:16;13.40;99.90
58517;DHT22;44308;50.810;0.284;2023-05-08T05:48:42;13.50;99.90
58517;DHT22;44308;50.810;0.284;2023-05-08T05:51:07;13.50;99.90
58517;DHT22;44308;50.810;0.284;2023-05-08T05:53:38;13.50;99.90
58517;DHT22;44308;50.810;0.284;2023-05-08T05:56:05;13.60;99.90
58517;DHT22;44308;50.810;0.284;2023-05-08T05:58:31;13.60;99.90
58517;DHT22;44308;50.810;0.284;2023-05-08T06:00:57;13.70;99.90
58517;DHT22;44308;50.810;0.284;2023-05-08T06:03:26;13.70;99.90
58517;DHT22;44308;50.810;0.284;2023-05-08T06:05:52;13.70;99.90
58517;DHT22;44308;50.810;0.284;2023-05-08T06:08:18;13.80;99.90
58517;DHT22;44308;50.810;0.284;2023-05-08T06:10:44;13.80;99.90
58517;DHT22;44308;50.810;0.284;2023-05-08T06:13:10;13.90;99.90
58517;DHT22;44308;50.810;0.284;2023-05-08T06:15:35;14.10;99.90
58517;DHT22;44308;50.810;0.284;2023-05-08T06:18:01;14.10;99.90
58517;DHT22;44308;50.810;0.284;2023-05-08T06:20:27;13.90;99.90
58517;DHT22;44308;50.810;0.284;2023-05-08T06:22:53;13.90;99.90
58517;DHT22;44308;50.810;0.284;2023-05-08T06:25:19;13.90;99.90
58517;DHT22;44308;50.810;0.284;2023-05-08T06:27:45;14.10;99.90
58517;DHT22;44308;50.810;0.284;2023-05-08T06:30:11;14.30;99.90
58517;DHT22;44308;50.810;0.284;2023-05-08T06:32:55;14.20;99.90
58517;DHT22;44308;50.810;0.284;2023-05-08T06:35:21;14.20;99.90
58517;DHT22;44308;50.810;0.284;2023-05-08T06:37:47;14.30;99.90
58517;DHT22;44308;50.810;0.284;2023-05-08T06:40:13;14.30;99.90
58517;DHT22;44308;50.810;0.284;2023-05-08T06:42:40;14.30;99.90
58517;DHT22;44308;50.810;0.284;2023-05-08T06:45:07;14.50;99.90
58517;DHT22;44308;50.810;0.284;2023-05-08T06:47:33;14.60;99.90
58517;DHT22;44308;50.810;0.284;2023-05-08T06:49:59;14.50;99.90
58517;DHT22;44308;50.810;0.284;2023-05-08T06:52:27;14.70;99.90
58517;DHT22;44308;50.810;0.284;2023-05-08T06:54:53;15.00;99.90
58517;DHT22;44308;50.810;0.284;2023-05-08T06:57:18;15.10;99.90
58517;DHT22;44308;50.810;0.284;2023-05-08T06:59:44;15.40;99.90
58517;DHT22;44308;50.810;0.284;2023-05-08T07:02:10;15.50;99.90
58517;DHT22;44308;50.810;0.284;2023-05-08T07:04:35;15.70;99.90
58517;DHT22;44308;50.810;0.284;2023-05-08T07:07:01;15.90;99.90
58517;DHT22;44308;50.810;0.284;2023-05-08T07:09:27;15.90;99.90
58517;DHT22;44308;50.810;0.284;2023-05-08T07:11:53;16.00;99.90
58517;DHT22;44308;50.810;0.284;2023-05-08T07:14:19;16.30;99.90
58517;DHT22;44308;50.810;0.284;2023-05-08T07:16:45;16.90;99.90
58517;DHT22;44308;50.810;0.284;2023-05-08T07:19:11;17.10;99.90
58517;DHT22;44308;50.810;0.284;2023-05-08T07:21:36;17.30;99.90
58517;DHT22;44308;50.810;0.284;2023-05-08T07:24:04;17.50;99.90
58517;DHT22;44308;50.810;0.284;2023-05-08T07:26:30;17.40;99.90
58517;DHT22;44308;50.810;0.284;2023-05-08T07:28:56;17.40;99.90
58517;DHT22;44308;50.810;0.284;2023-05-08T07:31:22;17.40;99.90
58517;DHT22;44308;50.810;0.284;2023-05-08T07:33:47;17.70;99.90
58517;DHT22;44308;50.810;0.284;2023-05-08T07:36:13;17.50;99.90
58517;DHT22;44308;50.810;0.284;2023-05-08T07:38:39;17.70;99.90
58517;DHT22;44308;50.810;0.284;2023-05-08T07:41:04;17.60;99.90
58517;DHT22;44308;50.810;0.284;2023-05-08T07:43:50;17.70;99.90
58517;DHT22;44308;50.810;0.284;2023-05-08T07:46:16;17.90;99.90
58517;DHT22;44308;50.810;0.284;2023-05-08T07:48:42;18.00;99.90
58517;DHT22;44308;50.810;0.284;2023-05-08T07:51:08;18.10;99.90
58517;DHT22;44308;50.810;0.284;2023-05-08T07:53:36;18.20;99.90
58517;DHT22;44308;50.810;0.284;2023-05-08T07:56:01;18.20;99.90
58517;DHT22;44308;50.810;0.284;2023-05-08T07:58:27;18.20;99.90
58517;DHT22;44308;50.810;0.284;2023-05-08T08:00:53;18.40;99.90
58517;DHT22;44308;50.810;0.284;2023-05-08T08:03:18;18.50;99.90
58517;DHT22;44308;50.810;0.284;2023-05-08T08:05:44;18.20;99.90
58517;DHT22;44308;50.810;0.284;2023-05-08T08:08:10;18.30;99.90
58517;DHT22;44308;50.810;0.284;2023-05-08T08:10:36;18.20;99.90
58517;DHT22;44308;50.810;0.284;2023-05-08T08:13:01;18.20;99.90
58517;DHT22;44308;50.810;0.284;2023-05-08T08:15:27;18.10;99.90
58517;DHT22;44308;50.810;0.284;2023-05-08T08:17:53;17.80;99.90
58517;DHT22;44308;50.810;0.284;2023-05-08T08:20:19;17.60;99.90
58517;DHT22;44308;50.810;0.284;2023-05-08T08:22:45;17.40;99.90
58517;DHT22;44308;50.810;0.284;2023-05-08T08:25:10;17.40;99.90
58517;DHT22;44308;50.810;0.284;2023-05-08T08:27:36;17.30;99.90
58517;DHT22;44308;50.810;0.284;2023-05-08T08:30:02;17.40;99.90
58517;DHT22;44308;50.810;0.284;2023-05-08T08:32:28;17.60;99.90
58517;DHT22;44308;50.810;0.284;2023-05-08T08:34:53;17.80;99.90
58517;DHT22;44308;50.810;0.284;2023-05-08T08:37:19;17.90;99.90
58517;DHT22;44308;50.810;0.284;2023-05-08T08:39:45;17.50;99.90
58517;DHT22;44308;50.810;0.284;2023-05-08T08:42:13;17.40;99.90
58517;DHT22;44308;50.810;0.284;2023-05-08T08:44:38;17.40;99.90
58517;DHT22;44308;50.810;0.284;2023-05-08T08:47:05;17.50;99.90
58517;DHT22;44308;50.810;0.284;2023-05-08T08:49:34;17.80;99.90
58517;DHT22;44308;50.810;0.284;2023-05-08T08:54:39;18.40;99.90
58517;DHT22;44308;50.810;0.284;2023-05-08T08:57:08;18.40;99.90
58517;DHT22;44308;50.810;0.284;2023-05-08T08:59:37;18.20;99.90
58517;DHT22;44308;50.810;0.284;2023-05-08T09:02:08;17.80;99.90
58517;DHT22;44308;50.810;0.284;2023-05-08T09:04:36;17.60;99.90
58517;DHT22;44308;50.810;0.284;2023-05-08T09:07:03;17.40;99.90
58517;DHT22;44308;50.810;0.284;2023-05-08T09:09:38;17.20;99.90
58517;DHT22;44308;50.810;0.284;2023-05-08T09:12:05;17.10;99.90
58517;DHT22;44308;50.810;0.284;2023-05-08T09:14:32;16.90;99.90
58517;DHT22;44308;50.810;0.284;2023-05-08T09:16:58;16.80;99.90
58517;DHT22;44308;50.810;0.284;2023-05-08T09:19:25;16.80;99.90
58517;DHT22;44308;50.810;0.284;2023-05-08T09:21:51;16.70;99.90
58517;DHT22;44308;50.810;0.284;2023-05-08T09:24:18;16.70;99.90
58517;DHT22;44308;50.810;0.284;2023-05-08T09:26:44;16.60;99.90
58517;DHT22;44308;50.810;0.284;2023-05-08T09:29:14;16.60;99.90
58517;DHT22;44308;50.810;0.284;2023-05-08T09:31:45;16.50;99.90
58517;DHT22;44308;50.810;0.284;2023-05-08T09:34:24;16.30;99.90
58517;DHT22;44308;50.810;0.284;2023-05-08T09:36:51;16.30;99.90
58517;DHT22;44308;50.810;0.284;2023-05-08T09:39:24;16.10;99.90
58517;DHT22;44308;50.810;0.284;2023-05-08T09:41:59;16.20;99.90
58517;DHT22;44308;50.810;0.284;2023-05-08T09:44:26;16.40;99.90
58517;DHT22;44308;50.810;0.284;2023-05-08T09:49:58;16.70;99.90
58517;DHT22;44308;50.810;0.284;2023-05-08T09:52:24;16.50;99.90
58517;DHT22;44308;50.810;0.284;2023-05-08T09:55:00;16.40;99.90
58517;DHT22;44308;50.810;0.284;2023-05-08T09:57:31;16.40;99.90
58517;DHT22;44308;50.810;0.284;2023-05-08T10:00:09;16.50;99.90
58517;DHT22;44308;50.810;0.284;2023-05-08T10:02:36;16.50;99.90
58517;DHT22;44308;50.810;0.284;2023-05-08T10:05:03;16.40;99.90
58517;DHT22;44308;50.810;0.284;2023-05-08T10:07:34;16.60;99.90
58517;DHT22;44308;50.810;0.284;2023-05-08T10:10:04;16.60;99.90
58517;DHT22;44308;50.810;0.284;2023-05-08T10:12:32;16.80;99.90
58517;DHT22;44308;50.810;0.284;2023-05-08T10:14:58;16.80;99.90
58517;DHT22;44308;50.810;0.284;2023-05-08T10:17:47;16.90;99.90
58517;DHT22;44308;50.810;0.284;2023-05-08T10:20:17;16.80;99.90
58517;DHT22;44308;50.810;0.284;2023-05-08T10:22:44;17.00;99.90
58517;DHT22;44308;50.810;0.284;2023-05-08T10:25:16;17.10;99.90
58517;DHT22;44308;50.810;0.284;2023-05-08T10:30:24;17.00;99.90
58517;DHT22;44308;50.810;0.284;2023-05-08T10:32:51;17.10;99.90
58517;DHT22;44308;50.810;0.284;2023-05-08T10:35:21;17.10;99.90
58517;DHT22;44308;50.810;0.284;2023-05-08T10:37:48;16.90;99.90
58517;DHT22;44308;50.810;0.284;2023-05-08T10:40:14;16.80;99.90
58517;DHT22;44308;50.810;0.284;2023-05-08T10:42:40;16.90;99.90
58517;DHT22;44308;50.810;0.284;2023-05-08T10:45:07;16.90;99.90
58517;DHT22;44308;50.810;0.284;2023-05-08T10:47:42;17.10;99.90
58517;DHT22;44308;50.810;0.284;2023-05-08T10:52:50;17.10;99.90
58517;DHT22;44308;50.810;0.284;2023-05-08T10:55:24;16.90;99.90
58517;DHT22;44308;50.810;0.284;2023-05-08T10:58:13;17.00;99.90
58517;DHT22;44308;50.810;0.284;2023-05-08T11:03:45;17.10;99.90
58517;DHT22;44308;50.810;0.284;2023-05-08T11:06:12;17.50;99.90
58517;DHT22;44308;50.810;0.284;2023-05-08T11:08:49;17.60;99.90
58517;DHT22;44308;50.810;0.284;2023-05-08T11:11:31;17.70;99.90
58517;DHT22;44308;50.810;0.284;2023-05-08T11:19:24;17.50;99.90
58517;DHT22;44308;50.810;0.284;2023-05-08T11:24:49;17.70;99.90
58517;DHT22;44308;50.810;0.284;2023-05-08T11:27:17;17.70;99.90
58517;DHT22;44308;50.810;0.284;2023-05-08T11:29:42;17.10;99.90
58517;DHT22;44308;50.810;0.284;2023-05-08T11:32:09;16.60;99.90
58517;DHT22;44308;50.810;0.284;2023-05-08T11:37:11;16.50;99.90
58517;DHT22;44308;50.810;0.284;2023-05-08T11:39:41;16.50;99.90
58517;DHT22;44308;50.810;0.284;2023-05-08T11:45:08;16.80;99.90
58517;DHT22;44308;50.810;0.284;2023-05-08T11:47:39;16.50;99.90
58517;DHT22;44308;50.810;0.284;2023-05-08T11:50:07;16.60;99.90
58517;DHT22;44308;50.810;0.284;2023-05-08T11:52:37;16.40;99.90
58517;DHT22;44308;50.810;0.284;2023-05-08T11:55:04;16.20;99.90
58517;DHT22;44308;50.810;0.284;2023-05-08T11:57:31;16.10;99.90
58517;DHT22;44308;50.810;0.284;2023-05-08T12:00:02;16.10;99.90
58517;DHT22;44308;50.810;0.284;2023-05-08T12:02:42;16.20;99.90
58517;DHT22;44308;50.810;0.284;2023-05-08T12:05:10;16.10;99.90
58517;DHT22;44308;50.810;0.284;2023-05-08T12:07:45;16.10;99.90
58517;DHT22;44308;50.810;0.284;2023-05-08T12:10:12;16.10;99.90
58517;DHT22;44308;50.810;0.284;2023-05-08T12:12:58;16.10;99.90
58517;DHT22;44308;50.810;0.284;2023-05-08T12:15:24;16.20;99.90
58517;DHT22;44308;50.810;0.284;2023-05-08T12:18:00;16.20;99.90
58517;DHT22;44308;50.810;0.284;2023-05-08T12:20:27;16.30;99.90
58517;DHT22;44308;50.810;0.284;2023-05-08T12:22:54;16.20;99.90
58517;DHT22;44308;50.810;0.284;2023-05-08T12:25:19;16.10;99.90
58517;DHT22;44308;50.810;0.284;2023-05-08T12:27:45;16.10;99.90
58517;DHT22;44308;50.810;0.284;2023-05-08T12:30:12;16.20;99.90
58517;DHT22;44308;50.810;0.284;2023-05-08T12:32:45;16.30;99.90
58517;DHT22;44308;50.810;0.284;2023-05-08T12:35:11;16.60;99.90
58517;DHT22;44308;50.810;0.284;2023-05-08T12:37:38;16.80;99.90
58517;DHT22;44308;50.810;0.284;2023-05-08T12:40:04;16.90;99.90
58517;DHT22;44308;50.810;0.284;2023-05-08T12:42:51;16.90;99.90
58517;DHT22;44308;50.810;0.284;2023-05-08T12:45:18;16.80;99.90
58517;DHT22;44308;50.810;0.284;2023-05-08T12:47:49;17.00;99.90
58517;DHT22;44308;50.810;0.284;2023-05-08T12:50:16;16.90;99.90
58517;DHT22;44308;50.810;0.284;2023-05-08T12:52:42;16.90;99.90
58517;DHT22;44308;50.810;0.284;2023-05-08T12:55:28;16.60;99.90
58517;DHT22;44308;50.810;0.284;2023-05-08T12:58:08;16.50;99.90
58517;DHT22;44308;50.810;0.284;2023-05-08T13:00:48;16.60;99.90
58517;DHT22;44308;50.810;0.284;2023-05-08T13:03:26;16.50;99.90
58517;DHT22;44308;50.810;0.284;2023-05-08T13:05:54;16.60;99.90
58517;DHT22;44308;50.810;0.284;2023-05-08T13:08:19;16.70;99.90
58517;DHT22;44308;50.810;0.284;2023-05-08T13:10:54;16.50;99.90
58517;DHT22;44308;50.810;0.284;2023-05-08T13:13:22;16.70;99.90
58517;DHT22;44308;50.810;0.284;2023-05-08T13:15:49;16.80;99.90
58517;DHT22;44308;50.810;0.284;2023-05-08T13:18:15;17.20;99.90
58517;DHT22;44308;50.810;0.284;2023-05-08T13:20:42;17.10;99.90
58517;DHT22;44308;50.810;0.284;2023-05-08T13:23:09;17.10;99.90
58517;DHT22;44308;50.810;0.284;2023-05-08T13:25:36;17.20;99.90
58517;DHT22;44308;50.810;0.284;2023-05-08T13:28:03;17.20;99.90
58517;DHT22;44308;50.810;0.284;2023-05-08T13:30:29;17.10;99.90
58517;DHT22;44308;50.810;0.284;2023-05-08T13:32:55;17.30;99.90
58517;DHT22;44308;50.810;0.284;2023-05-08T13:35:21;17.30;99.90
58517;DHT22;44308;50.810;0.284;2023-05-08T13:37:50;17.30;99.90
58517;DHT22;44308;50.810;0.284;2023-05-08T13:40:16;16.90;99.90
58517;DHT22;44308;50.810;0.284;2023-05-08T13:43:01;16.70;99.90
58517;DHT22;44308;50.810;0.284;2023-05-08T13:45:26;16.40;99.90
58517;DHT22;44308;50.810;0.284;2023-05-08T13:47:53;16.50;99.90
58517;DHT22;44308;50.810;0.284;2023-05-08T13:50:19;16.60;99.90
58517;DHT22;44308;50.810;0.284;2023-05-08T13:52:48;16.60;99.90
58517;DHT22;44308;50.810;0.284;2023-05-08T13:55:14;16.80;99.90
58517;DHT22;44308;50.810;0.284;2023-05-08T13:57:40;17.10;99.90
58517;DHT22;44308;50.810;0.284;2023-05-08T14:00:07;17.30;99.90
58517;DHT22;44308;50.810;0.284;2023-05-08T14:02:35;17.40;99.90
58517;DHT22;44308;50.810;0.284;2023-05-08T14:05:02;17.50;99.90
58517;DHT22;44308;50.810;0.284;2023-05-08T14:07:28;17.60;99.90
58517;DHT22;44308;50.810;0.284;2023-05-08T14:09:54;17.50;99.90
58517;DHT22;44308;50.810;0.284;2023-05-08T14:12:20;17.60;99.90
58517;DHT22;44308;50.810;0.284;2023-05-08T14:14:45;17.60;99.90
58517;DHT22;44308;50.810;0.284;2023-05-08T14:17:11;17.40;99.90
58517;DHT22;44308;50.810;0.284;2023-05-08T14:19:37;17.50;99.90
58517;DHT22;44308;50.810;0.284;2023-05-08T14:22:03;17.30;99.90
58517;DHT22;44308;50.810;0.284;2023-05-08T14:24:32;17.00;99.90
58517;DHT22;44308;50.810;0.284;2023-05-08T14:26:58;16.80;99.90
58517;DHT22;44308;50.810;0.284;2023-05-08T14:29:24;16.30;99.90
58517;DHT22;44308;50.810;0.284;2023-05-08T14:31:49;16.20;99.90
58517;DHT22;44308;50.810;0.284;2023-05-08T14:34:15;16.20;99.90
58517;DHT22;44308;50.810;0.284;2023-05-08T14:36:41;16.20;99.90
58517;DHT22;44308;50.810;0.284;2023-05-08T14:39:07;16.20;99.90
58517;DHT22;44308;50.810;0.284;2023-05-08T14:41:33;16.00;99.90
58517;DHT22;44308;50.810;0.284;2023-05-08T14:43:59;15.90;99.90
58517;DHT22;44308;50.810;0.284;2023-05-08T14:46:25;15.70;99.90
58517;DHT22;44308;50.810;0.284;2023-05-08T14:48:51;15.60;99.90
58517;DHT22;44308;50.810;0.284;2023-05-08T14:51:17;15.50;99.90
58517;DHT22;44308;50.810;0.284;2023-05-08T14:53:44;15.60;99.90
58517;DHT22;44308;50.810;0.284;2023-05-08T14:56:10;15.70;99.90
58517;DHT22;44308;50.810;0.284;2023-05-08T14:58:36;16.00;99.90
58517;DHT22;44308;50.810;0.284;2023-05-08T15:01:01;16.30;99.90
58517;DHT22;44308;50.810;0.284;2023-05-08T15:03:46;16.60;99.90
58517;DHT22;44308;50.810;0.284;2023-05-08T15:06:22;16.60;99.90
58517;DHT22;44308;50.810;0.284;2023-05-08T15:08:51;16.70;99.90
58517;DHT22;44308;50.810;0.284;2023-05-08T15:11:17;16.50;99.90
58517;DHT22;44308;50.810;0.284;2023-05-08T15:13:43;16.50;99.90
58517;DHT22;44308;50.810;0.284;2023-05-08T15:16:08;16.30;99.90
58517;DHT22;44308;50.810;0.284;2023-05-08T15:18:34;15.90;99.90
58517;DHT22;44308;50.810;0.284;2023-05-08T15:21:00;15.70;99.90
58517;DHT22;44308;50.810;0.284;2023-05-08T15:27:02;15.30;99.90
58517;DHT22;44308;50.810;0.284;2023-05-08T15:29:28;15.10;99.90
58517;DHT22;44308;50.810;0.284;2023-05-08T15:31:54;15.00;99.90
58517;DHT22;44308;50.810;0.284;2023-05-08T15:34:20;15.10;99.90
58517;DHT22;44308;50.810;0.284;2023-05-08T15:36:46;15.20;99.90
58517;DHT22;44308;50.810;0.284;2023-05-08T15:39:12;15.20;99.90
58517;DHT22;44308;50.810;0.284;2023-05-08T15:41:38;15.10;99.90
58517;DHT22;44308;50.810;0.284;2023-05-08T15:44:06;15.00;99.90
58517;DHT22;44308;50.810;0.284;2023-05-08T15:46:32;15.10;99.90
58517;DHT22;44308;50.810;0.284;2023-05-08T15:48:58;15.00;99.90
58517;DHT22;44308;50.810;0.284;2023-05-08T15:51:23;15.10;99.90
58517;DHT22;44308;50.810;0.284;2023-05-08T15:53:52;15.10;99.90
58517;DHT22;44308;50.810;0.284;2023-05-08T15:56:18;15.30;99.90
58517;DHT22;44308;50.810;0.284;2023-05-08T15:58:49;15.30;99.90
58517;DHT22;44308;50.810;0.284;2023-05-08T16:01:15;15.30;99.90
58517;DHT22;44308;50.810;0.284;2023-05-08T16:03:42;15.30;99.90
58517;DHT22;44308;50.810;0.284;2023-05-08T16:06:08;15.20;99.90
58517;DHT22;44308;50.810;0.284;2023-05-08T16:08:34;15.20;99.90
58517;DHT22;44308;50.810;0.284;2023-05-08T16:11:00;15.10;99.90
58517;DHT22;44308;50.810;0.284;2023-05-08T16:13:27;14.90;99.90
58517;DHT22;44308;50.810;0.284;2023-05-08T16:15:52;14.90;99.90
58517;DHT22;44308;50.810;0.284;2023-05-08T16:18:18;15.00;99.90
58517;DHT22;44308;50.810;0.284;2023-05-08T16:20:44;14.90;99.90
58517;DHT22;44308;50.810;0.284;2023-05-08T16:23:30;14.90;99.90
58517;DHT22;44308;50.810;0.284;2023-05-08T16:25:56;14.90;99.90
58517;DHT22;44308;50.810;0.284;2023-05-08T16:28:22;14.90;99.90
58517;DHT22;44308;50.810;0.284;2023-05-08T16:30:47;14.90;99.90
58517;DHT22;44308;50.810;0.284;2023-05-08T16:33:13;14.90;99.90
58517;DHT22;44308;50.810;0.284;2023-05-08T16:35:39;14.90;99.90